createdAt,value
2024-03-14T00:00:07.897Z,5.72
2024-03-14T00:02:34.849Z,6.07
2024-03-14T00:05:01.850Z,5.43
2024-03-14T00:07:28.806Z,5.88
2024-03-14T00:09:55.767Z,5.53
2024-03-14T00:12:22.853Z,5.10
2024-03-14T00:14:49.827Z,5.10
2024-03-14T00:17:17.081Z,5.15
2024-03-14T00:19:44.696Z,5.97
2024-03-14T00:22:11.609Z,5.22
2024-03-14T00:24:38.506Z,4.85
2024-03-14T00:27:05.602Z,5.13
2024-03-14T00:29:32.663Z,5.40
2024-03-14T00:31:59.636Z,5.30
2024-03-14T00:34:26.577Z,5.22
2024-03-14T00:36:54.291Z,4.68
2024-03-14T00:39:21.230Z,4.82
2024-03-14T00:41:48.210Z,4.68
2024-03-14T00:44:15.197Z,4.78
2024-03-14T00:46:42.101Z,4.93
2024-03-14T00:49:09.016Z,5.60
2024-03-14T00:51:35.912Z,4.28
2024-03-14T00:54:02.866Z,5.38
2024-03-14T00:56:29.845Z,4.82
2024-03-14T00:58:56.797Z,4.88
2024-03-14T01:01:23.769Z,5.00
2024-03-14T01:03:50.708Z,5.00
2024-03-14T01:06:17.666Z,5.60
2024-03-14T01:08:44.665Z,5.25
2024-03-14T01:11:11.661Z,5.63
2024-03-14T01:13:38.613Z,5.25
2024-03-14T01:16:06.372Z,6.32
2024-03-14T01:18:33.427Z,5.22
2024-03-14T01:21:00.428Z,5.47
2024-03-14T01:23:27.416Z,5.25
2024-03-14T01:25:54.371Z,5.72
2024-03-14T01:28:21.259Z,5.82
2024-03-14T01:30:48.200Z,6.05
2024-03-14T01:33:15.147Z,5.97
2024-03-14T01:35:42.176Z,6.75
2024-03-14T01:38:09.160Z,6.97
2024-03-14T01:40:36.184Z,6.32
2024-03-14T01:43:03.095Z,7.10
2024-03-14T01:45:30.244Z,6.47
2024-03-14T01:47:57.250Z,7.75
2024-03-14T01:50:24.251Z,7.07
2024-03-14T01:52:51.168Z,8.40
2024-03-14T01:55:18.103Z,6.60
2024-03-14T01:57:45.030Z,7.35
2024-03-14T02:00:12.351Z,6.97
2024-03-14T02:02:39.397Z,8.05
2024-03-14T02:05:06.771Z,8.38
2024-03-14T02:07:33.674Z,7.95
2024-03-14T02:10:00.682Z,8.38
2024-03-14T02:12:27.670Z,8.55
2024-03-14T02:14:54.779Z,8.48
2024-03-14T02:17:21.724Z,8.38
2024-03-14T02:19:48.677Z,8.32
2024-03-14T02:22:18.774Z,9.00
2024-03-14T02:24:45.713Z,9.40
2024-03-14T02:27:12.660Z,9.35
2024-03-14T02:29:39.557Z,9.38
2024-03-14T02:32:06.633Z,9.80
2024-03-14T02:34:33.557Z,9.05
2024-03-14T02:37:00.508Z,10.07
2024-03-14T02:39:27.447Z,10.23
2024-03-14T02:41:54.431Z,9.88
2024-03-14T02:44:21.354Z,10.00
2024-03-14T02:46:48.307Z,10.45
2024-03-14T02:49:15.264Z,9.93
2024-03-14T02:51:42.202Z,11.13
2024-03-14T02:54:09.123Z,10.30
2024-03-14T02:56:36.102Z,10.82
2024-03-14T02:59:03.039Z,9.60
2024-03-14T03:01:31.706Z,10.27
2024-03-14T03:03:58.638Z,9.90
2024-03-14T03:06:25.619Z,9.52
2024-03-14T03:08:52.633Z,9.98
2024-03-14T03:11:19.603Z,10.48
2024-03-14T03:13:46.598Z,9.88
2024-03-14T03:16:13.543Z,9.85
2024-03-14T03:18:40.658Z,10.20
2024-03-14T03:21:07.637Z,10.20
2024-03-14T03:23:34.578Z,10.63
2024-03-14T03:26:01.594Z,10.52
2024-03-14T03:28:29.199Z,11.32
2024-03-14T03:30:56.240Z,10.27
2024-03-14T03:33:23.197Z,11.38
2024-03-14T03:35:50.209Z,9.90
2024-03-14T03:38:17.184Z,10.18
2024-03-14T03:40:44.133Z,9.02
2024-03-14T03:43:11.050Z,10.45
2024-03-14T03:45:38.021Z,10.90
2024-03-14T03:48:05.416Z,10.15
2024-03-14T03:50:32.416Z,10.02
2024-03-14T03:52:59.348Z,9.95
2024-03-14T03:55:26.386Z,11.30
2024-03-14T03:57:53.412Z,11.27
2024-03-14T04:00:20.344Z,11.05
2024-03-14T04:02:47.290Z,10.60
2024-03-14T04:05:14.265Z,10.80
2024-03-14T04:07:41.186Z,10.35
2024-03-14T04:10:08.455Z,9.88
2024-03-14T04:12:35.408Z,11.50
2024-03-14T04:15:02.439Z,10.48
2024-03-14T04:17:29.447Z,9.75
2024-03-14T04:19:56.395Z,11.50
2024-03-14T04:22:23.296Z,11.50
2024-03-14T04:24:50.244Z,11.70
2024-03-14T04:27:17.156Z,10.68
2024-03-14T04:29:44.083Z,11.20
2024-03-14T04:32:11.062Z,11.18
2024-03-14T04:34:38.041Z,10.55
2024-03-14T04:37:04.967Z,11.32
2024-03-14T04:39:31.924Z,11.43
2024-03-14T04:41:58.847Z,11.40
2024-03-14T04:44:25.773Z,11.02
2024-03-14T04:46:52.727Z,10.85
2024-03-14T04:49:19.677Z,11.07
2024-03-14T04:51:46.636Z,10.90
2024-03-14T04:54:13.643Z,10.93
2024-03-14T04:56:40.649Z,9.95
2024-03-14T04:59:07.574Z,10.35
2024-03-14T05:01:34.585Z,10.52
2024-03-14T05:04:01.487Z,10.88
2024-03-14T05:06:28.532Z,11.32
2024-03-14T05:08:55.670Z,10.65
2024-03-14T05:11:22.712Z,9.30
2024-03-14T05:13:49.722Z,10.73
2024-03-14T05:16:16.747Z,10.18
2024-03-14T05:18:43.911Z,11.15
2024-03-14T05:21:10.985Z,9.57
2024-03-14T05:23:37.961Z,9.90
2024-03-14T05:26:06.684Z,9.63
2024-03-14T05:28:33.651Z,9.25
2024-03-14T05:31:00.540Z,9.73
2024-03-14T05:33:27.625Z,8.93
2024-03-14T05:35:54.597Z,9.90
2024-03-14T05:38:21.600Z,8.95
2024-03-14T05:40:48.565Z,8.02
2024-03-14T05:43:15.516Z,9.40
2024-03-14T05:45:42.536Z,8.43
2024-03-14T05:48:09.670Z,7.68
2024-03-14T05:50:36.676Z,9.20
2024-03-14T05:53:03.694Z,8.00
2024-03-14T05:55:30.584Z,8.38
2024-03-14T05:57:57.562Z,9.02
2024-03-14T06:00:24.520Z,7.88
2024-03-14T06:02:51.511Z,8.02
2024-03-14T06:05:18.522Z,8.30
2024-03-14T06:07:45.566Z,7.90
2024-03-14T06:10:12.586Z,8.85
2024-03-14T06:12:39.628Z,8.45
2024-03-14T06:15:06.996Z,8.55
2024-03-14T06:17:33.992Z,7.95
2024-03-14T06:20:00.974Z,8.30
2024-03-14T06:22:27.900Z,7.85
2024-03-14T06:24:54.814Z,8.13
2024-03-14T06:27:21.784Z,8.48
2024-03-14T06:29:48.745Z,8.27
2024-03-14T06:32:15.719Z,8.07
2024-03-14T06:34:42.676Z,8.10
2024-03-14T06:37:09.611Z,8.18
2024-03-14T06:39:38.832Z,8.15
2024-03-14T06:42:06.774Z,7.63
2024-03-14T06:44:33.823Z,8.40
2024-03-14T06:47:00.727Z,7.50
2024-03-14T06:49:27.696Z,7.78
2024-03-14T06:51:54.627Z,7.55
2024-03-14T06:54:21.652Z,7.80
2024-03-14T06:56:48.662Z,6.82
2024-03-14T06:59:15.692Z,7.63
2024-03-14T07:01:42.698Z,8.25
2024-03-14T07:04:09.681Z,6.68
2024-03-14T07:06:36.723Z,8.50
2024-03-14T07:09:03.828Z,7.78
2024-03-14T07:11:30.919Z,6.82
2024-03-14T07:13:58.141Z,7.57
2024-03-14T07:16:25.193Z,7.55
2024-03-14T07:18:52.364Z,7.57
2024-03-14T07:21:19.476Z,6.65
2024-03-14T07:23:46.449Z,6.95
2024-03-14T07:26:13.393Z,6.88
2024-03-14T07:28:40.351Z,5.57
2024-03-14T07:31:07.258Z,6.90
2024-03-14T07:33:34.451Z,7.63
2024-03-14T07:36:01.440Z,7.60
2024-03-14T07:38:28.451Z,6.57
2024-03-14T07:40:55.626Z,7.65
2024-03-14T07:43:22.597Z,5.93
2024-03-14T07:45:49.499Z,6.53
2024-03-14T07:48:16.510Z,5.65
2024-03-14T07:50:43.530Z,6.35
2024-03-14T07:53:11.419Z,5.60
2024-03-14T07:55:38.537Z,5.27
2024-03-14T07:58:05.504Z,5.25
2024-03-14T08:00:32.483Z,5.10
2024-03-14T08:02:59.479Z,4.40
2024-03-14T08:05:29.203Z,5.00
2024-03-14T08:08:09.073Z,5.18
2024-03-14T08:10:41.958Z,4.68
2024-03-14T08:13:08.933Z,4.05
2024-03-14T08:15:35.877Z,4.40
2024-03-14T08:18:03.735Z,4.47
2024-03-14T08:20:30.689Z,4.88
2024-03-14T08:22:57.613Z,4.53
2024-03-14T08:25:24.553Z,4.40
2024-03-14T08:27:51.504Z,4.40
2024-03-14T08:30:18.521Z,4.13
2024-03-14T08:32:45.504Z,3.55
2024-03-14T08:35:12.438Z,4.43
2024-03-14T08:37:39.351Z,3.95
2024-03-14T08:40:06.810Z,4.20
2024-03-14T08:42:42.640Z,3.80
2024-03-14T08:45:13.110Z,4.05
2024-03-14T08:47:40.245Z,3.80
2024-03-14T08:50:07.647Z,3.00
2024-03-14T08:52:34.648Z,3.80
2024-03-14T08:55:01.625Z,3.70
2024-03-14T08:57:28.608Z,3.70
2024-03-14T08:59:55.589Z,3.65
2024-03-14T09:02:22.496Z,4.20
2024-03-14T09:04:49.451Z,3.53
2024-03-14T09:07:16.370Z,3.17
2024-03-14T09:09:43.360Z,3.50
2024-03-14T09:12:10.592Z,3.35
2024-03-14T09:14:38.217Z,3.70
2024-03-14T09:17:05.189Z,3.58
2024-03-14T09:19:32.254Z,3.67
2024-03-14T09:21:59.216Z,3.30
2024-03-14T09:24:26.239Z,3.60
2024-03-14T09:26:53.248Z,3.40
2024-03-14T09:29:20.440Z,4.05
2024-03-14T09:31:47.402Z,3.10
2024-03-14T09:34:14.338Z,2.90
2024-03-14T09:36:41.350Z,3.35
2024-03-14T09:39:08.397Z,3.50
2024-03-14T09:41:35.489Z,3.10
2024-03-14T09:44:02.520Z,3.80
2024-03-14T09:46:29.487Z,3.38
2024-03-14T09:48:56.491Z,3.10
2024-03-14T09:51:23.508Z,3.05
2024-03-14T09:53:50.450Z,3.20
2024-03-14T09:56:17.416Z,3.50
2024-03-14T09:58:44.377Z,3.40
2024-03-14T10:01:11.633Z,2.97
2024-03-14T10:03:39.165Z,3.00
2024-03-14T10:06:06.385Z,2.75
2024-03-14T10:08:33.321Z,2.80
2024-03-14T10:11:00.271Z,3.40
2024-03-14T10:13:27.350Z,2.80
2024-03-14T10:15:54.275Z,2.72
2024-03-14T10:18:21.324Z,2.70
2024-03-14T10:20:48.339Z,2.13
2024-03-14T10:23:16.313Z,2.70
2024-03-14T10:25:43.222Z,2.60
2024-03-14T10:28:11.547Z,2.58
2024-03-14T10:30:42.925Z,3.00
2024-03-14T10:33:11.407Z,2.83
2024-03-14T10:35:39.792Z,3.10
2024-03-14T10:38:06.805Z,2.70
2024-03-14T10:40:33.754Z,2.75
2024-03-14T10:43:00.667Z,2.90
2024-03-14T10:45:28.102Z,2.40
2024-03-14T10:47:55.554Z,3.45
2024-03-14T10:50:22.502Z,2.40
2024-03-14T10:52:49.437Z,2.17
2024-03-14T10:55:16.508Z,2.20
2024-03-14T10:57:43.487Z,2.17
2024-03-14T11:00:11.223Z,2.45
2024-03-14T11:02:38.137Z,3.22
2024-03-14T11:05:05.394Z,2.90
2024-03-14T11:07:32.336Z,2.92
2024-03-14T11:09:59.283Z,2.15
2024-03-14T11:12:26.192Z,2.83
2024-03-14T11:14:53.221Z,2.60
2024-03-14T11:17:20.209Z,2.28
2024-03-14T11:19:47.142Z,2.45
2024-03-14T11:22:14.431Z,2.38
2024-03-14T11:24:42.001Z,2.60
2024-03-14T11:27:08.983Z,2.70
2024-03-14T11:29:35.890Z,2.40
2024-03-14T11:32:12.579Z,2.40
2024-03-14T11:34:39.539Z,2.60
2024-03-14T11:37:06.568Z,2.80
2024-03-14T11:39:37.202Z,2.42
2024-03-14T11:42:08.562Z,2.40
2024-03-14T11:44:35.567Z,2.50
2024-03-14T11:47:02.623Z,2.33
2024-03-14T11:49:29.603Z,2.22
2024-03-14T11:51:56.585Z,2.30
2024-03-14T11:54:23.572Z,2.38
2024-03-14T11:56:50.503Z,2.20
2024-03-14T11:59:17.611Z,2.30
2024-03-14T12:01:50.738Z,1.90
2024-03-14T12:04:18.561Z,1.92
2024-03-14T12:06:46.528Z,2.00
2024-03-14T12:09:13.595Z,1.63
2024-03-14T12:11:40.562Z,1.85
2024-03-14T12:14:07.511Z,1.80
2024-03-14T12:16:34.472Z,1.70
2024-03-14T12:19:06.683Z,2.40
2024-03-14T12:21:33.689Z,1.75
2024-03-14T12:24:00.781Z,1.40
2024-03-14T12:26:27.736Z,1.48
2024-03-14T12:28:54.696Z,1.40
2024-03-14T12:31:21.605Z,1.73
2024-03-14T12:33:48.770Z,1.40
2024-03-14T12:36:16.261Z,1.33
2024-03-14T12:38:48.059Z,1.30
2024-03-14T12:41:14.977Z,1.48
2024-03-14T12:43:42.103Z,2.17
2024-03-14T12:46:09.022Z,1.58
2024-03-14T12:48:36.002Z,1.02
2024-03-14T12:51:12.276Z,1.52
2024-03-14T12:53:39.380Z,1.15
2024-03-14T12:56:06.461Z,1.20
2024-03-14T12:58:33.793Z,1.20
2024-03-14T13:01:00.778Z,1.88
2024-03-14T13:03:28.390Z,1.00
2024-03-14T13:05:55.488Z,1.00
2024-03-14T13:08:22.469Z,1.10
2024-03-14T13:10:49.644Z,1.60
2024-03-14T13:13:16.824Z,1.33
2024-03-14T13:15:43.781Z,1.10
2024-03-14T13:18:13.860Z,1.10
2024-03-14T13:20:42.224Z,0.93
2024-03-14T13:23:09.776Z,0.88
2024-03-14T13:25:36.681Z,1.05
2024-03-14T13:28:03.771Z,1.10
2024-03-14T13:30:30.766Z,1.15
2024-03-14T13:32:57.922Z,1.00
2024-03-14T13:35:25.057Z,1.10
2024-03-14T13:37:51.970Z,1.20
2024-03-14T13:40:21.054Z,1.00
2024-03-14T13:42:48.361Z,1.02
2024-03-14T13:45:15.434Z,1.00
2024-03-14T13:47:42.462Z,1.00
2024-03-14T13:50:09.429Z,1.00
2024-03-14T13:52:36.403Z,1.08
2024-03-14T13:55:03.391Z,1.10
2024-03-14T13:57:30.423Z,1.20
2024-03-14T13:59:57.388Z,1.23
2024-03-14T14:02:24.348Z,1.55
2024-03-14T14:04:51.239Z,1.02
2024-03-14T14:07:18.188Z,1.33
2024-03-14T14:09:45.286Z,0.98
2024-03-14T14:12:12.251Z,1.20
2024-03-14T14:14:39.209Z,1.25
2024-03-14T14:17:06.182Z,1.13
2024-03-14T14:19:33.138Z,1.48
2024-03-14T14:22:00.058Z,1.38
2024-03-14T14:24:27.039Z,1.20
2024-03-14T14:26:54.091Z,1.60
2024-03-14T14:29:21.024Z,1.60
2024-03-14T14:31:47.983Z,1.58
2024-03-14T14:34:15.136Z,1.85
2024-03-14T14:36:42.262Z,1.70
2024-03-14T14:39:09.265Z,1.70
2024-03-14T14:41:36.207Z,1.52
2024-03-14T14:44:03.101Z,1.95
2024-03-14T14:46:30.092Z,1.65
2024-03-14T14:48:57.086Z,1.55
2024-03-14T14:51:24.230Z,2.03
2024-03-14T14:53:51.211Z,3.30
2024-03-14T14:56:18.214Z,4.18
2024-03-14T14:58:45.164Z,4.07
2024-03-14T15:01:12.544Z,4.20
2024-03-14T15:03:39.596Z,4.85
2024-03-14T15:06:06.830Z,4.85
2024-03-14T15:08:33.765Z,4.82
2024-03-14T15:11:00.755Z,5.35
2024-03-14T15:13:27.859Z,4.88
2024-03-14T15:15:55.081Z,4.85
2024-03-14T15:18:22.221Z,4.28
2024-03-14T15:20:49.219Z,4.32
2024-03-14T15:23:16.148Z,4.25
2024-03-14T15:25:43.334Z,4.50
2024-03-14T15:28:10.299Z,4.20
2024-03-14T15:30:37.257Z,4.43
2024-03-14T15:33:04.345Z,4.47
2024-03-14T15:35:31.374Z,4.40
2024-03-14T15:37:58.354Z,4.65
2024-03-14T15:40:25.343Z,3.72
2024-03-14T15:42:52.327Z,3.65
2024-03-14T15:45:20.135Z,3.60
2024-03-14T15:47:47.910Z,3.67
2024-03-14T15:50:15.003Z,3.70
2024-03-14T15:52:42.172Z,3.28
2024-03-14T15:55:09.135Z,3.13
2024-03-14T15:57:36.102Z,3.45
2024-03-14T16:00:03.238Z,4.35
2024-03-14T16:02:30.328Z,4.00
2024-03-14T16:04:57.275Z,3.38
2024-03-14T16:07:24.239Z,3.53
2024-03-14T16:09:51.326Z,3.58
2024-03-14T16:12:18.352Z,3.50
2024-03-14T16:14:46.578Z,4.05
2024-03-14T16:17:13.894Z,3.95
2024-03-14T16:19:40.935Z,4.10
2024-03-14T16:22:07.997Z,4.45
2024-03-14T16:24:34.964Z,4.20
2024-03-14T16:27:01.975Z,4.78
2024-03-14T16:29:29.013Z,3.55
2024-03-14T16:31:55.942Z,3.60
2024-03-14T16:34:22.894Z,3.90
2024-03-14T16:36:49.967Z,4.10
2024-03-14T16:39:16.999Z,3.40
2024-03-14T16:41:44.013Z,3.60
2024-03-14T16:44:10.924Z,3.33
2024-03-14T16:46:37.869Z,3.38
2024-03-14T16:49:04.795Z,3.95
2024-03-14T16:51:31.865Z,3.60
2024-03-14T16:53:58.804Z,3.35
2024-03-14T16:56:25.762Z,3.67
2024-03-14T16:58:52.732Z,3.67
2024-03-14T17:01:19.766Z,3.67
2024-03-14T17:03:46.734Z,3.28
2024-03-14T17:06:13.791Z,3.53
2024-03-14T17:08:40.776Z,3.53
2024-03-14T17:11:07.824Z,3.38
2024-03-14T17:13:34.793Z,3.63
2024-03-14T17:16:01.750Z,3.42
2024-03-14T17:18:29.075Z,3.50
2024-03-14T17:20:56.020Z,3.83
2024-03-14T17:23:22.968Z,3.90
2024-03-14T17:25:49.903Z,3.10
2024-03-14T17:28:16.849Z,3.38
2024-03-14T17:30:43.842Z,3.47
2024-03-14T17:33:10.916Z,3.60
2024-03-14T17:35:37.982Z,4.03
2024-03-14T17:38:04.986Z,3.50
2024-03-14T17:40:31.950Z,3.80
2024-03-14T17:42:58.929Z,3.42
2024-03-14T17:45:25.904Z,3.90
2024-03-14T17:47:52.984Z,3.33
2024-03-14T17:50:20.058Z,3.70
2024-03-14T17:52:47.250Z,3.65
2024-03-14T17:55:14.293Z,4.38
2024-03-14T17:57:41.222Z,3.80
2024-03-14T18:00:08.578Z,3.83
2024-03-14T18:02:35.560Z,3.55
2024-03-14T18:05:02.603Z,3.72
2024-03-14T18:07:29.637Z,3.42
2024-03-14T18:09:56.630Z,4.70
2024-03-14T18:12:23.585Z,5.10
2024-03-14T18:14:50.672Z,7.68
2024-03-14T18:17:20.180Z,4.70
2024-03-14T18:19:48.663Z,3.88
2024-03-14T18:22:15.845Z,3.67
2024-03-14T18:24:42.890Z,3.55
2024-03-14T18:27:09.894Z,3.65
2024-03-14T18:29:36.879Z,4.50
2024-03-14T18:32:04.118Z,4.28
2024-03-14T18:34:31.037Z,5.47
2024-03-14T18:36:57.976Z,6.55
2024-03-14T18:39:24.925Z,5.03
2024-03-14T18:41:51.890Z,6.03
2024-03-14T18:44:18.910Z,5.00
2024-03-14T18:46:46.019Z,4.95
2024-03-14T18:49:17.605Z,4.22
2024-03-14T18:51:49.526Z,4.05
2024-03-14T18:55:14.683Z,4.35
2024-03-14T18:57:41.701Z,4.25
2024-03-14T19:00:09.360Z,4.13
2024-03-14T19:02:36.399Z,4.10
2024-03-14T19:05:03.346Z,3.85
2024-03-14T19:07:30.319Z,4.43
2024-03-14T19:09:57.347Z,4.32
2024-03-14T19:12:24.313Z,4.35
2024-03-14T19:14:51.672Z,4.65
2024-03-14T19:17:21.970Z,4.20
2024-03-14T19:19:49.863Z,4.75
2024-03-14T19:22:17.337Z,4.30
2024-03-14T19:24:44.367Z,4.60
2024-03-14T19:27:11.509Z,3.90
2024-03-14T19:29:38.501Z,4.53
2024-03-14T19:32:05.602Z,4.55
2024-03-14T19:34:32.513Z,4.93
2024-03-14T19:36:59.459Z,4.55
2024-03-14T19:39:26.395Z,4.80
2024-03-14T19:41:53.439Z,4.13
2024-03-14T19:44:20.419Z,5.95
2024-03-14T19:46:47.388Z,5.65
2024-03-14T19:49:14.442Z,5.40
2024-03-14T19:51:41.596Z,6.25
2024-03-14T19:54:08.665Z,5.30
2024-03-14T19:56:36.898Z,5.75
2024-03-14T19:59:03.801Z,5.55
2024-03-14T20:01:30.811Z,5.47
2024-03-14T20:03:57.765Z,6.15
2024-03-14T20:06:24.789Z,6.93
2024-03-14T20:08:51.830Z,6.57
2024-03-14T20:11:18.834Z,6.93
2024-03-14T20:13:45.894Z,7.82
2024-03-14T20:16:14.264Z,7.75
2024-03-14T20:18:41.416Z,5.63
2024-03-14T20:21:08.411Z,6.70
2024-03-14T20:23:35.386Z,6.10
2024-03-14T20:26:02.337Z,6.68
2024-03-14T20:28:29.367Z,5.65
2024-03-14T20:30:56.430Z,6.65
2024-03-14T20:33:23.644Z,6.15
2024-03-14T20:35:50.817Z,6.88
2024-03-14T20:38:17.784Z,6.95
2024-03-14T20:40:52.229Z,6.65
2024-03-14T20:43:20.101Z,5.82
2024-03-14T20:45:47.081Z,5.15
2024-03-14T20:48:14.289Z,4.80
2024-03-14T20:50:41.401Z,4.55
2024-03-14T20:53:08.353Z,4.35
2024-03-14T20:55:35.367Z,4.13
2024-03-14T21:00:26.556Z,3.67
2024-03-14T21:04:56.371Z,3.65
2024-03-14T21:07:24.233Z,3.72
2024-03-14T21:09:53.289Z,3.75
2024-03-14T21:12:24.307Z,3.50
2024-03-14T21:14:54.046Z,3.70
2024-03-14T21:17:21.983Z,4.35
2024-03-14T21:19:49.785Z,3.60
2024-03-14T21:22:17.630Z,3.28
2024-03-14T21:24:45.614Z,3.58
2024-03-14T21:27:13.640Z,3.63
2024-03-14T21:29:41.929Z,3.70
2024-03-14T21:32:09.949Z,3.38
2024-03-14T21:34:39.395Z,3.33
2024-03-14T21:37:08.209Z,3.80
2024-03-14T21:42:08.518Z,3.67
2024-03-14T21:44:44.245Z,4.40
2024-03-14T21:47:12.179Z,3.70
2024-03-14T21:49:39.920Z,3.90
2024-03-14T21:52:10.190Z,3.55
2024-03-14T21:54:38.456Z,3.47
2024-03-14T21:57:06.911Z,3.55
2024-03-14T21:59:35.616Z,3.45
2024-03-14T22:02:03.741Z,3.13
2024-03-14T22:04:31.582Z,3.42
2024-03-14T22:06:59.372Z,3.47
2024-03-14T22:09:27.282Z,3.65
2024-03-14T22:11:55.532Z,3.28
2024-03-14T22:14:23.371Z,3.40
2024-03-14T22:16:51.268Z,3.40
2024-03-14T22:19:19.691Z,3.33
2024-03-14T22:21:47.496Z,3.20
2024-03-14T22:24:15.331Z,2.88
2024-03-14T22:26:43.371Z,3.80
2024-03-14T22:29:12.177Z,3.20
2024-03-14T22:34:08.009Z,3.50
2024-03-14T22:36:40.211Z,3.95
2024-03-14T22:39:10.376Z,3.35
2024-03-14T22:41:38.811Z,3.42
2024-03-14T22:44:07.036Z,3.80
2024-03-14T22:46:35.039Z,3.15
2024-03-14T22:49:03.089Z,3.70
2024-03-14T22:51:30.958Z,3.90
2024-03-14T22:53:59.260Z,4.05
2024-03-14T22:56:27.080Z,3.95
2024-03-14T22:58:54.821Z,3.55
2024-03-14T23:01:24.068Z,4.78
2024-03-14T23:03:51.929Z,4.53
2024-03-14T23:06:20.610Z,4.75
2024-03-14T23:08:49.472Z,4.47
2024-03-14T23:13:44.990Z,4.45
2024-03-14T23:16:16.225Z,5.10
2024-03-14T23:18:44.067Z,4.93
2024-03-14T23:21:12.458Z,4.18
2024-03-14T23:23:40.297Z,4.38
2024-03-14T23:26:18.398Z,4.55
2024-03-14T23:28:51.474Z,4.45
2024-03-14T23:33:47.552Z,4.50
2024-03-14T23:36:16.871Z,5.32
2024-03-14T23:38:44.992Z,4.30
2024-03-14T23:41:12.745Z,5.00
2024-03-14T23:43:42.695Z,4.53
2024-03-14T23:46:11.049Z,4.43
2024-03-14T23:48:38.953Z,4.68
2024-03-14T23:51:06.821Z,5.10
2024-03-14T23:53:34.675Z,4.60
2024-03-14T23:56:02.507Z,4.50
2024-03-14T23:58:30.601Z,4.80
